Terminal Aerodrome Forecast
Issued by NWS Boston, MA

Home | Current Version | Previous Version | Text Only | Print | Product List | Glossary Off
Versions: 1 2 3 4 5 6 7 8 9 10 11 12 13 14 15 16 17 18 19 20 21 22 23 24 25 26 27 28 29 30 31 32 33 34 35 36 37 38 39 40
798 FTUS41 KBOX 050903 AAA TAFORH TAF AMD KORH 050903Z 0509/0606 00000KT P6SM BKN100 FM051030 VRB03KT 3/4SM -SN OVC009 FM051500 15004KT 2SM BR VCSH OVC012 FM051800 21004KT P6SM OVC010 FM052100 25006KT P6SM SCT010 FM060300 29008KT P6SM SCT250=

USA.gov is the U.S. government's official web portal to all federal, state and local government web resources and services.